TLPC/SLU METAR and TAF weather

Enter ICAO airport designator
Station Type Date Time Source
TLPC METAR 2022/05/26 01:00 UTC NOAA

TLPC 260100Z 10006KT 9999 FEW022 27/24 Q1016 NOSIG


Station Type Date Time Source
TLPC Decoded METAR 2022/05/26 01:00 UTC NOAA

Vigie, Saint Lucia (TLPC) 14-01N 061-00W 2M
May 25, 2022 - 09:00 PM EDT / 2022.05.26 0100 UTC
Wind: from the E (100 degrees) at 7 MPH (6 KT):0
Visibility: greater than 7 mile(s):0
Sky conditions: mostly clear
Temperature: 80 F (27 C)
Dew Point: 75 F (24 C)
Relative Humidity: 83%
Pressure (altimeter): 30.00 in. Hg (1016 hPa)
ob: TLPC 260100Z 10006KT 9999 FEW022 27/24 Q1016 NOSIG
cycle: 1

Station Type Date Time Source
TLPC TAF 2022/05/26 06:02 UTC NOAA

TAF TLPC 260459Z 2606/2706 10010KT 9999 SCT025

Example: see airport list